createdAt,value
2019-01-04T00:00:13.573Z,62.87
2019-01-04T00:02:42.275Z,63.53
2019-01-04T00:05:11.259Z,61.43
2019-01-04T00:07:39.973Z,60.20
2019-01-04T00:10:08.697Z,62.23
2019-01-04T00:12:38.738Z,58.20
2019-01-04T00:15:07.844Z,56.67
2019-01-04T00:17:36.555Z,55.00
2019-01-04T00:20:06.657Z,55.60
2019-01-04T00:22:35.355Z,53.37
2019-01-04T00:25:04.238Z,50.33
2019-01-04T00:27:35.194Z,52.03
2019-01-04T00:30:06.166Z,52.77
2019-01-04T00:32:34.896Z,56.00
2019-01-04T00:35:03.586Z,55.80
2019-01-04T00:37:33.927Z,54.50
2019-01-04T00:40:02.615Z,57.13
2019-01-04T00:42:31.317Z,56.70
2019-01-04T00:45:00.375Z,60.43
2019-01-04T00:47:29.044Z,57.53
2019-01-04T00:49:57.826Z,58.10
2019-01-04T00:52:29.031Z,60.33
2019-01-04T00:54:59.060Z,60.17
2019-01-04T00:57:55.244Z,58.13
2019-01-04T01:01:03.407Z,53.27
2019-01-04T01:04:08.861Z,57.33
2019-01-04T01:06:56.808Z,58.00
2019-01-04T01:09:43.490Z,59.40
2019-01-04T01:12:31.727Z,60.93
2019-01-04T01:15:20.012Z,61.50
2019-01-04T01:18:09.633Z,60.33
2019-01-04T01:21:05.601Z,57.23
2019-01-04T01:23:55.312Z,58.70
2019-01-04T01:26:43.560Z,54.47
2019-01-04T01:29:21.346Z,45.23
2019-01-04T01:31:54.982Z,47.30
2019-01-04T01:34:30.103Z,47.73
2019-01-04T01:37:24.526Z,51.63
2019-01-04T01:40:19.375Z,41.97
2019-01-04T01:43:07.556Z,42.33
2019-01-04T01:45:54.482Z,45.97
2019-01-04T01:48:24.704Z,45.53
2019-01-04T01:50:59.880Z,47.40
2019-01-04T01:53:40.291Z,49.40
2019-01-04T01:56:09.054Z,59.63
2019-01-04T01:58:38.927Z,66.43
2019-01-04T02:01:07.614Z,72.27
2019-01-04T02:03:36.382Z,66.37
2019-01-04T02:06:05.068Z,65.53
2019-01-04T02:08:33.852Z,64.07
2019-01-04T02:11:02.608Z,45.27
2019-01-04T02:13:31.288Z,41.87
2019-01-04T02:15:59.972Z,41.37
2019-01-04T02:18:28.666Z,42.37
2019-01-04T02:20:57.431Z,39.90
2019-01-04T02:23:26.136Z,42.57
2019-01-04T02:25:54.811Z,41.43
2019-01-04T02:28:25.083Z,42.27
2019-01-04T02:30:53.768Z,43.30
2019-01-04T02:33:23.484Z,45.50
2019-01-04T02:35:52.182Z,47.67
2019-01-04T02:38:20.884Z,47.10
2019-01-04T02:40:49.587Z,48.27
2019-01-04T02:43:18.303Z,48.47
2019-01-04T02:45:47.319Z,43.67
2019-01-04T02:48:16.007Z,43.63
2019-01-04T02:50:44.716Z,45.13
2019-01-04T02:53:13.399Z,39.30
2019-01-04T02:55:42.110Z,38.53
2019-01-04T02:58:11.388Z,37.50
2019-01-04T03:00:40.103Z,38.47
2019-01-04T03:03:08.828Z,37.87
2019-01-04T03:05:37.619Z,38.40
2019-01-04T03:08:06.301Z,41.47
2019-01-04T03:10:35.075Z,40.73
2019-01-04T03:13:03.760Z,40.00
2019-01-04T03:15:32.455Z,39.57
2019-01-04T03:18:01.158Z,37.87
2019-01-04T03:20:31.057Z,37.73
2019-01-04T03:23:00.759Z,35.87
2019-01-04T03:25:29.427Z,37.27
2019-01-04T03:27:58.151Z,41.27
2019-01-04T03:30:26.882Z,40.30
2019-01-04T03:32:55.624Z,42.97
2019-01-04T03:35:24.600Z,42.77
2019-01-04T03:37:53.297Z,41.33
2019-01-04T03:40:22.044Z,38.13
2019-01-04T03:42:51.855Z,36.27
2019-01-04T03:45:20.557Z,37.97
2019-01-04T03:47:49.298Z,37.80
2019-01-04T03:50:18.047Z,41.63
2019-01-04T03:52:46.717Z,37.20
2019-01-04T03:55:15.419Z,38.23
2019-01-04T03:57:44.098Z,38.13
2019-01-04T04:00:13.142Z,40.97
2019-01-04T04:02:41.868Z,44.10
2019-01-04T04:05:10.578Z,41.77
2019-01-04T04:07:39.364Z,43.97
2019-01-04T04:10:08.253Z,43.47
2019-01-04T04:12:37.016Z,42.80
2019-01-04T04:15:05.821Z,45.37
2019-01-04T04:17:34.522Z,34.73
2019-01-04T04:20:03.204Z,33.97
2019-01-04T04:22:31.943Z,31.90
2019-01-04T04:25:01.117Z,30.77
2019-01-04T04:27:29.804Z,29.73
2019-01-04T04:29:58.491Z,30.70
2019-01-04T04:32:27.188Z,31.90
2019-01-04T04:34:55.895Z,32.60
2019-01-04T04:37:24.660Z,31.33
2019-01-04T04:39:53.366Z,31.20
2019-01-04T04:42:22.078Z,31.63
2019-01-04T04:44:50.797Z,31.33
2019-01-04T04:47:19.883Z,30.20
2019-01-04T04:49:48.631Z,37.07
2019-01-04T04:52:17.416Z,28.10
2019-01-04T04:54:46.090Z,29.67
2019-01-04T04:57:14.843Z,31.07
2019-01-04T04:59:43.542Z,33.10
2019-01-04T05:02:12.609Z,32.53
2019-01-04T05:04:41.283Z,34.53
2019-01-04T05:07:09.985Z,33.80
2019-01-04T05:09:38.829Z,31.87
2019-01-04T05:12:07.490Z,30.37
2019-01-04T05:14:36.252Z,31.27
2019-01-04T05:17:04.979Z,29.63
2019-01-04T05:19:33.661Z,31.40
2019-01-04T05:22:02.383Z,26.60
2019-01-04T05:24:31.084Z,29.17
2019-01-04T05:26:59.845Z,28.40
2019-01-04T05:29:28.570Z,28.30
2019-01-04T05:32:00.536Z,28.77
2019-01-04T05:34:31.895Z,26.90
2019-01-04T05:37:00.656Z,26.70
2019-01-04T05:39:29.881Z,30.57
2019-01-04T05:41:58.639Z,30.73
2019-01-04T05:44:27.298Z,34.50
2019-01-04T05:46:57.741Z,32.97
2019-01-04T05:49:26.427Z,33.30
2019-01-04T05:51:55.206Z,32.13
2019-01-04T05:54:23.997Z,32.47
2019-01-04T05:56:52.882Z,34.77
2019-01-04T05:59:30.418Z,33.37
2019-01-04T06:02:00.697Z,34.80
2019-01-04T06:04:30.697Z,36.47
2019-01-04T06:06:59.411Z,35.57
2019-01-04T06:09:31.251Z,36.73
2019-01-04T06:12:00.216Z,31.63
2019-01-04T06:14:28.893Z,32.90
2019-01-04T06:16:57.669Z,28.97
2019-01-04T06:19:26.451Z,26.13
2019-01-04T06:21:55.150Z,26.97
2019-01-04T06:24:23.853Z,26.07
2019-01-04T06:26:52.555Z,27.47
2019-01-04T06:29:21.927Z,25.90
2019-01-04T06:31:50.622Z,27.87
2019-01-04T06:34:19.291Z,26.93
2019-01-04T06:36:47.987Z,26.50
2019-01-04T06:39:16.669Z,26.27
2019-01-04T06:41:45.400Z,25.80
2019-01-04T06:44:14.111Z,25.37
2019-01-04T06:46:58.184Z,22.63
2019-01-04T06:49:28.202Z,13.97
2019-01-04T06:51:56.941Z,16.50
2019-01-04T06:55:03.476Z,13.53
2019-01-04T06:57:32.678Z,16.20
2019-01-04T07:00:02.056Z,17.37
2019-01-04T07:02:34.272Z,15.27
2019-01-04T07:05:02.936Z,16.70
2019-01-04T07:07:31.681Z,16.50
2019-01-04T07:10:02.208Z,18.13
2019-01-04T07:12:33.153Z,19.17
2019-01-04T07:15:01.853Z,21.90
2019-01-04T07:17:33.289Z,18.87
2019-01-04T07:20:01.978Z,20.77
2019-01-04T07:22:32.173Z,16.90
2019-01-04T07:25:01.306Z,15.50
2019-01-04T07:27:39.815Z,14.97
2019-01-04T07:30:08.989Z,16.00
2019-01-04T07:32:38.739Z,15.43
2019-01-04T07:35:07.427Z,16.07
2019-01-04T07:37:41.149Z,15.17
2019-01-04T07:40:10.506Z,12.77
2019-01-04T07:42:40.214Z,15.23
2019-01-04T07:45:11.236Z,14.93
2019-01-04T07:47:39.998Z,14.77
2019-01-04T07:50:09.227Z,14.17
2019-01-04T07:52:43.484Z,12.67
2019-01-04T07:55:12.304Z,12.80
2019-01-04T07:57:42.697Z,12.47
2019-01-04T08:00:12.556Z,12.70
2019-01-04T08:02:50.191Z,10.13
2019-01-04T08:05:19.413Z,11.50
2019-01-04T08:07:48.110Z,13.40
2019-01-04T08:10:16.855Z,14.27
2019-01-04T08:12:45.624Z,15.60
2019-01-04T08:15:17.515Z,17.57
2019-01-04T08:17:54.776Z,15.90
2019-01-04T08:23:18.242Z,15.70
2019-01-04T08:25:51.701Z,17.03
2019-01-04T08:28:18.968Z,14.77
2019-01-04T08:33:47.055Z,14.57
2019-01-04T08:36:15.740Z,14.03
2019-01-04T08:38:44.426Z,13.73
2019-01-04T08:41:13.145Z,14.97
2019-01-04T08:43:41.863Z,15.07
2019-01-04T08:46:10.551Z,16.40
2019-01-04T08:48:39.228Z,16.97
2019-01-04T08:51:07.947Z,15.00
2019-01-04T08:53:54.946Z,20.63
2019-01-04T08:56:24.677Z,14.93
2019-01-04T08:58:53.356Z,15.60
2019-01-04T09:01:22.058Z,14.07
2019-01-04T09:03:50.779Z,16.33
2019-01-04T09:06:19.498Z,18.00
2019-01-04T09:08:48.214Z,16.93
2019-01-04T09:11:16.923Z,16.87
2019-01-04T09:13:46.252Z,17.23
2019-01-04T09:16:15.359Z,16.87
2019-01-04T09:18:44.051Z,18.97
2019-01-04T09:21:13.810Z,19.73
2019-01-04T09:23:42.477Z,19.33
2019-01-04T09:26:13.886Z,17.80
2019-01-04T09:31:38.752Z,17.57
2019-01-04T09:34:16.276Z,17.87
2019-01-04T09:36:48.253Z,19.27
2019-01-04T09:39:19.781Z,20.53
2019-01-04T09:41:49.899Z,20.47
2019-01-04T09:44:18.659Z,21.43
2019-01-04T09:46:47.459Z,22.37
2019-01-04T09:49:17.547Z,23.57
2019-01-04T09:51:50.140Z,21.27
2019-01-04T09:54:18.903Z,21.03
2019-01-04T09:56:49.498Z,21.93
2019-01-04T09:59:18.730Z,20.93
2019-01-04T10:01:50.858Z,23.20
2019-01-04T10:04:19.610Z,23.83
2019-01-04T10:06:48.364Z,23.03
2019-01-04T10:09:17.119Z,25.33
2019-01-04T10:11:52.060Z,21.73
2019-01-04T10:14:29.220Z,24.43
2019-01-04T10:16:59.515Z,24.40
2019-01-04T10:19:28.340Z,23.00
2019-01-04T10:21:58.510Z,21.97
2019-01-04T10:24:27.168Z,21.73
2019-01-04T10:26:55.906Z,22.30
2019-01-04T10:29:26.202Z,21.03
2019-01-04T10:31:54.984Z,19.80
2019-01-04T10:34:23.668Z,20.87
2019-01-04T10:37:00.079Z,22.00
2019-01-04T10:39:29.481Z,19.07
2019-01-04T10:42:01.801Z,22.47
2019-01-04T10:44:35.795Z,21.30
2019-01-04T10:47:10.218Z,21.20
2019-01-04T10:49:41.815Z,20.67
2019-01-04T10:52:11.149Z,21.03
2019-01-04T10:54:45.528Z,20.23
2019-01-04T11:06:40.718Z,19.30
2019-01-04T11:09:11.041Z,18.77
2019-01-04T11:11:39.747Z,18.00
2019-01-04T11:14:08.487Z,17.73
2019-01-04T11:16:37.197Z,16.57
2019-01-04T11:19:05.929Z,15.97
2019-01-04T11:21:34.915Z,14.73
2019-01-04T11:24:12.938Z,13.57
2019-01-04T11:26:45.372Z,12.77
2019-01-04T11:29:20.673Z,12.10
2019-01-04T11:31:52.636Z,13.27
2019-01-04T11:34:41.746Z,14.77
2019-01-04T11:37:45.536Z,16.90
2019-01-04T11:40:22.645Z,15.73
2019-01-04T11:43:08.190Z,15.97
2019-01-04T11:45:59.255Z,16.40
2019-01-04T11:48:37.183Z,16.77
2019-01-04T11:51:18.170Z,16.47
2019-01-04T11:53:47.246Z,17.70
2019-01-04T11:56:17.489Z,18.57
2019-01-04T11:58:46.924Z,18.63
2019-01-04T12:01:15.657Z,17.13
2019-01-04T12:03:47.557Z,17.87
2019-01-04T12:06:18.128Z,17.77
2019-01-04T12:11:29.023Z,16.90
2019-01-04T12:13:59.362Z,15.10
2019-01-04T12:16:29.691Z,15.73
2019-01-04T12:19:14.308Z,14.47
2019-01-04T12:21:44.356Z,16.80
2019-01-04T12:24:13.198Z,13.43
2019-01-04T12:26:41.939Z,15.97
2019-01-04T12:29:16.777Z,16.63
2019-01-04T12:31:48.514Z,16.83
2019-01-04T12:34:37.053Z,14.87
2019-01-04T12:37:06.969Z,16.13
2019-01-04T12:39:37.726Z,17.00
2019-01-04T12:42:06.415Z,15.73
2019-01-04T12:44:35.173Z,16.97
2019-01-04T12:47:03.904Z,16.27
2019-01-04T12:49:32.784Z,16.33
2019-01-04T12:52:01.573Z,14.17
2019-01-04T12:54:30.264Z,15.43
2019-01-04T12:56:59.027Z,16.27
2019-01-04T12:59:27.736Z,14.13
2019-01-04T13:01:56.447Z,16.20
2019-01-04T13:04:25.192Z,15.60
2019-01-04T13:06:54.008Z,16.13
2019-01-04T13:09:26.866Z,12.33
2019-01-04T13:11:55.610Z,14.83
2019-01-04T13:14:24.535Z,14.93
2019-01-04T13:16:55.302Z,14.80
2019-01-04T13:19:25.744Z,14.97
2019-01-04T13:21:54.422Z,15.63
2019-01-04T13:24:23.297Z,12.57
2019-01-04T13:26:52.044Z,13.97
2019-01-04T13:29:21.079Z,14.67
2019-01-04T13:31:49.888Z,15.60
2019-01-04T13:34:18.699Z,15.97
2019-01-04T13:36:50.441Z,13.10
2019-01-04T13:39:19.182Z,16.73
2019-01-04T13:41:48.725Z,16.27
2019-01-04T13:44:19.062Z,16.47
2019-01-04T13:46:53.048Z,16.13
2019-01-04T13:49:25.623Z,17.33
2019-01-04T13:51:59.941Z,17.90
2019-01-04T13:54:28.763Z,19.10
2019-01-04T13:57:04.258Z,19.60
2019-01-04T13:59:35.426Z,19.70
2019-01-04T14:02:04.098Z,13.07
2019-01-04T14:04:33.411Z,18.77
2019-01-04T14:07:02.732Z,19.33
2019-01-04T14:09:33.233Z,18.97
2019-01-04T14:12:02.349Z,19.40
2019-01-04T14:14:32.766Z,19.03
2019-01-04T14:17:07.310Z,20.10
2019-01-04T14:19:35.919Z,21.40
2019-01-04T14:22:04.784Z,21.23
2019-01-04T14:24:33.949Z,21.57
2019-01-04T14:27:03.683Z,20.13
2019-01-04T14:29:33.976Z,23.30
2019-01-04T14:32:04.107Z,20.93
2019-01-04T14:34:33.011Z,21.93
2019-01-04T14:37:02.225Z,20.13
2019-01-04T14:39:31.026Z,21.83
2019-01-04T14:41:59.715Z,22.07
2019-01-04T14:44:29.798Z,21.23
2019-01-04T14:46:58.506Z,20.30
2019-01-04T14:49:29.255Z,20.00
2019-01-04T14:52:00.588Z,20.63
2019-01-04T14:54:35.406Z,22.40
2019-01-04T14:57:05.434Z,18.83
2019-01-04T14:59:34.135Z,23.47
2019-01-04T15:02:03.790Z,22.43
2019-01-04T15:04:32.666Z,23.50
2019-01-04T15:07:01.399Z,20.93
2019-01-04T15:09:30.124Z,18.40
2019-01-04T15:12:00.306Z,22.10
2019-01-04T15:14:29.770Z,22.00
2019-01-04T15:17:03.008Z,22.20
2019-01-04T15:19:31.814Z,19.87
2019-01-04T15:22:01.968Z,19.07
2019-01-04T15:24:31.190Z,20.37
2019-01-04T15:27:00.200Z,19.13
2019-01-04T15:29:29.593Z,19.03
2019-01-04T15:32:00.991Z,18.37
2019-01-04T15:34:30.833Z,17.90
2019-01-04T15:37:02.590Z,16.33
2019-01-04T15:39:32.079Z,17.67
2019-01-04T15:42:08.808Z,17.93
2019-01-04T15:44:41.554Z,16.77
2019-01-04T15:47:11.434Z,15.43
2019-01-04T15:49:44.785Z,14.53
2019-01-04T15:52:15.017Z,15.03
2019-01-04T15:54:48.737Z,15.07
2019-01-04T15:57:19.344Z,12.67
2019-01-04T15:59:55.627Z,14.03
2019-01-04T16:02:26.334Z,12.23
2019-01-04T16:04:56.671Z,13.57
2019-01-04T16:07:26.405Z,13.87
2019-01-04T16:09:57.905Z,13.70
2019-01-04T16:12:26.654Z,17.47
2019-01-04T16:14:55.703Z,16.23
2019-01-04T16:17:27.052Z,13.00
2019-01-04T16:20:03.104Z,13.20
2019-01-04T16:22:33.459Z,11.87
2019-01-04T16:25:03.394Z,11.07
2019-01-04T16:27:32.139Z,10.73
2019-01-04T16:30:01.812Z,10.87
2019-01-04T16:32:33.158Z,9.83
2019-01-04T16:35:02.356Z,10.50
2019-01-04T16:37:35.215Z,9.27
2019-01-04T16:40:05.350Z,8.40
2019-01-04T16:42:38.252Z,9.20
2019-01-04T16:45:07.823Z,9.43
2019-01-04T16:47:38.269Z,10.17
2019-01-04T16:50:07.099Z,10.30
2019-01-04T16:52:35.838Z,10.10
2019-01-04T16:55:05.899Z,10.57
2019-01-04T16:57:37.189Z,10.30
2019-01-04T17:00:24.888Z,9.97
2019-01-04T17:02:53.905Z,10.07
2019-01-04T17:05:23.067Z,9.73
2019-01-04T17:07:54.560Z,8.77
2019-01-04T17:10:35.515Z,10.90
2019-01-04T17:13:06.127Z,8.97
2019-01-04T17:15:35.474Z,10.30
2019-01-04T17:18:04.326Z,10.70
2019-01-04T17:20:33.012Z,12.80
2019-01-04T17:23:01.767Z,12.77
2019-01-04T17:25:35.978Z,13.20
2019-01-04T17:28:07.539Z,14.20
2019-01-04T17:39:39.151Z,14.83
2019-01-04T17:45:22.893Z,17.57
2019-01-04T17:48:05.106Z,17.67
2019-01-04T18:28:49.867Z,22.87
2019-01-04T19:35:30.802Z,14.63
2019-01-04T22:46:37.977Z,10.97
2019-01-04T22:49:31.909Z,10.43
2019-01-04T22:52:10.118Z,11.73
2019-01-04T22:54:47.713Z,11.73
2019-01-04T22:57:59.088Z,11.97
2019-01-04T23:00:36.126Z,11.73
2019-01-04T23:18:09.362Z,12.90
2019-01-04T23:23:53.792Z,14.83
2019-01-04T23:26:41.097Z,12.47
2019-01-04T23:32:40.068Z,12.60
2019-01-04T23:38:32.319Z,13.63
2019-01-04T23:41:23.626Z,14.27
2019-01-04T23:44:02.919Z,14.20
2019-01-04T23:46:49.330Z,14.67
2019-01-04T23:49:19.631Z,16.17
2019-01-04T23:51:56.581Z,19.37
2019-01-04T23:54:43.222Z,19.77
2019-01-04T23:57:22.809Z,27.60
